Dessau, Texas
Current Conditions -  °F | °C
As of 6:15 PM on Friday 24 Oct 2014 (Local Time) from KEDC Reporting Station
Clear Clear  
Wind Chill: 81°   Ceiling: Unl
Heat Index: 81°   Visibility: 10mi
Dew Point: 59°   Wind: 3mph
Humidity: 48%   Direction: 130°SE
Pressure: 30.09"   Gusts: NA
Location:  30.3795°N, 97.676°W
Report Text: KEDC 242315Z AUTO 13003KT 10SM CLR 27/15 A3009 RMK AO2
Loading
Personal Weather Stations






























Interactive Weather Map New forecast layout! Learn more

10-Day Weather Forecast

Advertisements
Track Severe Weather on mobile